Time;durP1;ratioP1;P1;durP2;ratioP2;P2;SDS_P1;SDS_P2;PMS_P1;PMS_P2;Temp;Humidity;BMP_temperature;BMP_pressure;BME280_temperature;BME280_humidity;BME280_pressure;Samples;Min_cycle;Max_cycle;Signal;HPM_P1;HPM_P2
2022/11/04 00:00:23;;;;;;;;;3.67;0.67;;;;;13.26;100.00;100073.97;5129300;27;45518;-75
2022/11/04 00:02:48;;;;;;;;;1.00;1.00;;;;;13.27;100.00;100068.66;5139483;27;46029;-75
2022/11/04 00:05:14;;;;;;;;;0.00;0.00;;;;;13.29;100.00;100068.63;5135499;27;67599;-75
2022/11/04 00:12:23;;;;;;;;;0.00;0.00;;;;;13.28;100.00;100048.34;5131912;27;45162;-75
2022/11/04 00:13:08;;;;;;;;;1.00;1.00;;;;;13.28;100.00;100038.59;5132572;27;46456;-75
2022/11/04 00:18:20;;;;;;;;;4.00;0.67;;;;;13.32;100.00;100044.75;5137009;27;45493;-75
2022/11/04 00:28:57;;;;;;;;;2.00;1.00;;;;;13.30;100.00;100027.97;5108047;27;45461;-74
2022/11/04 00:34:07;;;;;;;;;1.00;0.33;;;;;13.25;100.00;100030.69;5132904;27;45890;-75
2022/11/04 00:36:33;;;;;;;;;1.00;0.00;;;;;13.23;100.00;100036.91;5114613;27;45341;-75
2022/11/04 00:38:58;;;;;;;;;2.00;0.67;;;;;13.19;100.00;100029.84;5117163;27;45222;-75
2022/11/04 00:41:27;;;;;;;;;0.67;0.00;;;;;13.17;100.00;100021.06;5109536;27;56701;-75
2022/11/04 00:43:54;;;;;;;;;2.00;0.00;;;;;13.19;100.00;100033.38;5114335;27;48308;-74
2022/11/04 00:46:19;;;;;;;;;0.00;0.00;;;;;13.18;100.00;100034.28;5125437;27;45571;-75
2022/11/04 00:48:44;;;;;;;;;5.67;0.33;;;;;13.18;100.00;100028.97;5108000;27;45662;-76
2022/11/04 00:51:11;;;;;;;;;0.33;0.33;;;;;13.20;100.00;100021.00;5104778;27;45437;-75
2022/11/04 00:53:36;;;;;;;;;0.00;0.00;;;;;13.20;100.00;100015.69;5124155;27;57063;-75
2022/11/04 00:56:02;;;;;;;;;1.33;0.00;;;;;13.18;100.00;100023.66;5118849;27;64530;-75
2022/11/04 00:58:27;;;;;;;;;2.00;0.00;;;;;13.18;100.00;100010.41;5119519;27;60136;-74
2022/11/04 01:00:53;;;;;;;;;3.00;0.33;;;;;13.22;100.00;100013.94;5107945;27;45599;-75
2022/11/04 01:03:18;;;;;;;;;0.00;0.00;;;;;13.26;100.00;100013.91;5137031;27;65709;-76
2022/11/04 01:05:43;;;;;;;;;0.67;0.67;;;;;13.27;100.00;100002.38;5135773;27;45290;-76
2022/11/04 01:08:09;;;;;;;;;1.00;0.00;;;;;13.27;100.00;99998.88;5135506;27;58228;-75
2022/11/04 01:10:35;;;;;;;;;0.33;0.00;;;;;13.28;100.00;99993.53;5130906;27;56320;-75
2022/11/04 01:13:01;;;;;;;;;0.00;0.00;;;;;13.31;100.00;99985.53;5133267;27;45838;-75
2022/11/04 01:15:26;;;;;;;;;0.00;0.00;;;;;13.31;100.00;99990.81;5128573;27;45411;-75
2022/11/04 01:17:51;;;;;;;;;1.67;0.67;;;;;13.34;100.00;99998.75;5132817;27;58273;-76
2022/11/04 01:20:17;;;;;;;;;0.00;0.00;;;;;13.36;100.00;99999.59;5126177;27;58208;-75
2022/11/04 01:22:42;;;;;;;;;3.00;0.00;;;;;13.35;100.00;99983.72;5107632;27;45878;-75
2022/11/04 01:25:08;;;;;;;;;3.00;0.00;;;;;13.36;100.00;99980.16;5106618;27;45401;-76
2022/11/04 01:27:33;;;;;;;;;0.00;0.00;;;;;13.34;100.00;99979.31;5126067;27;45422;-74
2022/11/04 01:29:58;;;;;;;;;0.00;0.00;;;;;13.31;100.00;99984.66;5122661;27;57059;-76
2022/11/04 01:32:24;;;;;;;;;3.00;0.00;;;;;13.29;100.00;99983.81;5120256;27;62966;-76
2022/11/04 01:34:49;;;;;;;;;1.00;0.00;;;;;13.28;100.00;99976.75;5133641;27;65766;-74
2022/11/04 01:37:14;;;;;;;;;2.67;1.00;;;;;13.28;100.00;99977.63;5134673;27;55214;-74
2022/11/04 01:39:40;;;;;;;;;2.00;0.00;;;;;13.28;100.00;99982.06;5128885;27;45658;-75
2022/11/04 01:42:05;;;;;;;;;4.00;0.00;;;;;13.25;100.00;99972.34;5113939;27;52377;-75
2022/11/04 01:44:52;;;;;;;;;2.33;0.00;;;;;13.25;100.00;99972.34;5125327;27;57824;-75
2022/11/04 01:47:23;;;;;;;;;2.00;0.00;;;;;13.25;100.00;99971.47;5128572;27;45250;-75
2022/11/04 01:49:55;;;;;;;;;2.33;0.00;;;;;13.23;100.00;99973.28;5123529;27;45354;-74
2022/11/04 01:52:54;;;;;;;;;1.00;0.00;;;;;13.18;100.00;99965.34;5085742;27;47455;-75
2022/11/04 01:55:22;;;;;;;;;2.33;0.00;;;;;13.16;100.00;99958.34;5108019;27;45349;-75
2022/11/04 01:57:49;;;;;;;;;2.00;0.00;;;;;13.14;100.00;99953.03;5119322;27;45267;-76
2022/11/04 02:00:15;;;;;;;;;1.00;0.00;;;;;13.14;100.00;99945.09;5119903;27;45327;-75
2022/11/04 02:03:08;;;;;;;;;1.00;1.00;;;;;13.15;100.00;99940.66;5137183;27;45546;-75
2022/11/04 02:05:34;;;;;;;;;2.00;0.00;;;;;13.14;100.00;99952.16;5116486;27;45241;-75
2022/11/04 02:08:01;;;;;;;;;1.00;0.00;;;;;13.07;100.00;99951.38;5117778;27;62770;-75
2022/11/04 02:10:29;;;;;;;;;4.00;1.00;;;;;13.05;100.00;99964.66;5114327;27;45495;-75
2022/11/04 02:12:56;;;;;;;;;0.00;0.00;;;;;13.05;100.00;99961.13;5118209;27;47871;-76
2022/11/04 02:15:39;;;;;;;;;0.00;0.00;;;;;13.02;100.00;99942.59;5112527;27;45400;-75
2022/11/04 02:18:16;;;;;;;;;0.00;0.00;;;;;13.01;100.00;99933.78;5134640;27;45474;-75
2022/11/04 02:21:08;;;;;;;;;3.67;0.00;;;;;13.03;100.00;99933.75;5112713;27;45330;-76
2022/11/04 02:23:52;;;;;;;;;0.00;0.00;;;;;13.02;100.00;99938.19;5109130;27;47056;-76
2022/11/04 02:26:59;;;;;;;;;0.00;0.00;;;;;13.01;100.00;99936.44;5130679;27;45499;-74
2022/11/04 02:29:38;;;;;;;;;0.00;0.00;;;;;13.02;100.00;99940.84;5128356;27;45293;-74
2022/11/04 02:32:25;;;;;;;;;0.00;0.00;;;;;13.00;100.00;99944.41;5124041;27;45319;-75
2022/11/04 02:35:09;;;;;;;;;2.00;0.00;;;;;12.98;100.00;99952.34;5137613;27;45576;-75
2022/11/04 02:37:38;;;;;;;;;0.00;0.00;;;;;12.99;100.00;99956.75;5117697;27;45521;-74
2022/11/04 02:40:27;;;;;;;;;1.67;0.00;;;;;12.96;100.00;99938.28;5112309;27;45429;-74
2022/11/04 02:43:01;;;;;;;;;2.00;0.00;;;;;12.99;100.00;99943.50;5109204;27;45548;-75
2022/11/04 02:45:36;;;;;;;;;1.00;0.00;;;;;13.02;100.00;99943.47;5134155;27;46560;-76
2022/11/04 02:48:15;;;;;;;;;1.67;0.00;;;;;13.04;100.00;99943.44;5133537;27;45347;-74
2022/11/04 02:50:52;;;;;;;;;0.00;0.00;;;;;13.05;100.00;99940.81;5128830;27;45508;-75
2022/11/04 02:53:23;;;;;;;;;2.67;0.00;;;;;13.04;100.00;99931.06;5124780;27;45619;-74
2022/11/04 02:55:52;;;;;;;;;0.00;0.00;;;;;13.05;100.00;99931.97;5105567;27;47046;-75
2022/11/04 02:58:24;;;;;;;;;2.00;0.00;;;;;13.08;100.00;99931.91;5116803;27;45457;-75
2022/11/04 03:00:51;;;;;;;;;1.33;0.67;;;;;13.08;100.00;99929.28;5122963;27;45422;-76
2022/11/04 03:03:29;;;;;;;;;2.67;1.00;;;;;13.09;100.00;99933.66;5140560;27;45483;-74
2022/11/04 03:05:55;;;;;;;;;1.67;0.00;;;;;13.11;100.00;99923.94;5105531;27;45570;-74
2022/11/04 03:08:33;;;;;;;;;0.67;0.00;;;;;13.13;100.00;99923.91;5130919;27;63798;-74
2022/11/04 03:11:04;;;;;;;;;3.00;0.00;;;;;13.10;100.00;99922.16;5136964;27;45184;-74
2022/11/04 03:13:38;;;;;;;;;0.00;0.00;;;;;13.14;100.00;99918.56;5112536;27;45511;-75
2022/11/04 03:16:08;;;;;;;;;0.00;0.00;;;;;13.10;100.00;99907.16;5136298;27;46733;-75
2022/11/04 03:18:53;;;;;;;;;0.00;0.00;;;;;13.12;100.00;99909.78;5112264;27;45494;-75
2022/11/04 03:21:19;;;;;;;;;0.00;0.00;;;;;13.15;100.00;99911.50;5134146;27;45195;-75
2022/11/04 03:23:45;;;;;;;;;0.00;0.00;;;;;13.14;100.00;99907.97;5107552;27;56476;-75
2022/11/04 03:26:12;;;;;;;;;0.00;0.00;;;;;13.16;100.00;99918.56;5129192;27;68970;-75
2022/11/04 03:28:42;;;;;;;;;0.67;0.00;;;;;13.16;100.00;99911.50;5106044;27;45497;-75
2022/11/04 03:31:17;;;;;;;;;0.00;0.00;;;;;13.18;100.00;99914.13;5105617;27;45299;-75
2022/11/04 03:33:47;;;;;;;;;3.00;0.00;;;;;13.16;100.00;99908.84;5112275;27;45415;-75
2022/11/04 03:36:13;;;;;;;;;0.67;0.00;;;;;13.19;100.00;99907.91;5115094;27;46888;-75
2022/11/04 03:38:38;;;;;;;;;3.67;0.00;;;;;13.19;100.00;99898.19;5135852;27;56912;-75
2022/11/04 03:41:10;;;;;;;;;2.33;0.00;;;;;13.20;100.00;99902.59;5112136;27;59515;-75
2022/11/04 03:43:36;;;;;;;;;1.00;0.00;;;;;13.20;100.00;99891.97;5132581;27;45509;-75
2022/11/04 03:46:02;;;;;;;;;1.00;0.00;;;;;13.19;100.00;99899.97;5108521;27;67051;-76
2022/11/04 03:48:28;;;;;;;;;0.00;0.00;;;;;13.18;100.00;99899.09;5109548;27;45321;-75
2022/11/04 03:50:53;;;;;;;;;1.67;1.00;;;;;13.18;100.00;99890.25;5107063;27;45404;-75
2022/11/04 03:53:22;;;;;;;;;0.00;0.00;;;;;13.16;100.00;99892.06;5123079;27;56676;-75
2022/11/04 03:56:24;;;;;;;;;0.00;0.00;;;;;13.18;100.00;99899.09;5104122;27;47669;-75
2022/11/04 03:59:03;;;;;;;;;5.00;0.00;;;;;13.17;100.00;99894.69;5124564;27;45490;-74
2022/11/04 04:02:03;;;;;;;;;3.00;0.00;;;;;13.17;100.00;99912.38;5121445;27;45296;-75
2022/11/04 04:04:31;;;;;;;;;0.00;0.00;;;;;13.15;100.00;99915.03;5120042;27;45289;-75
2022/11/04 04:07:12;;;;;;;;;1.33;0.00;;;;;13.14;100.00;99910.63;5114567;27;46376;-75
2022/11/04 04:09:41;;;;;;;;;1.33;0.00;;;;;13.14;100.00;99917.69;5116690;27;45442;-75
2022/11/04 04:12:13;;;;;;;;;0.00;0.00;;;;;13.11;100.00;99908.91;5114313;27;45495;-75
2022/11/04 04:14:47;;;;;;;;;0.00;0.00;;;;;13.10;100.00;99917.78;5111993;27;45493;-75
2022/11/04 04:17:20;;;;;;;;;1.00;0.00;;;;;13.12;100.00;99917.72;5111028;27;47297;-75
2022/11/04 04:19:53;;;;;;;;;2.00;0.00;;;;;13.09;100.00;99926.59;5133589;27;45506;-74
2022/11/04 04:22:32;;;;;;;;;0.00;0.00;;;;;13.08;100.00;99913.38;5128146;27;45199;-75
2022/11/04 04:27:46;;;;;;;;;0.00;0.00;;;;;13.10;100.00;99925.72;5127013;27;45317;-75
2022/11/04 04:30:13;;;;;;;;;0.00;0.00;;;;;13.08;100.00;99919.53;5103144;27;71330;-76
2022/11/04 04:33:04;;;;;;;;;1.00;0.00;;;;;13.08;100.00;99924.84;5115437;27;45342;-75
2022/11/04 04:35:43;;;;;;;;;1.00;0.00;;;;;13.11;100.00;99918.63;5118866;27;45380;-74
2022/11/04 04:46:41;;;;;;;;;0.00;0.00;;;;;13.09;100.00;99929.25;5113625;27;45253;-76
2022/11/04 04:49:08;;;;;;;;;0.00;0.00;;;;;13.07;100.00;99924.88;5108864;27;67304;-74
2022/11/04 04:51:36;;;;;;;;;0.00;0.00;;;;;13.08;100.00;99922.19;5123604;27;45239;-75
2022/11/04 04:54:01;;;;;;;;;0.00;0.00;;;;;13.04;100.00;99917.81;5105988;27;45361;-75
2022/11/04 04:56:27;;;;;;;;;0.67;0.00;;;;;13.03;100.00;99920.50;5120949;27;45582;-75
2022/11/04 04:58:52;;;;;;;;;0.00;0.00;;;;;13.02;100.00;99929.34;5120060;27;45949;-75
2022/11/04 05:01:17;;;;;;;;;1.00;0.00;;;;;13.01;100.00;99924.97;5107917;27;45339;-74
2022/11/04 05:03:43;;;;;;;;;1.00;0.00;;;;;12.98;100.00;99925.84;5133928;27;45427;-76
2022/11/04 05:06:08;;;;;;;;;2.33;0.00;;;;;12.97;100.00;99921.47;5118006;27;58578;-77
2022/11/04 05:08:34;;;;;;;;;0.33;0.00;;;;;12.98;100.00;99927.63;5131445;27;65935;-75
2022/11/04 05:10:59;;;;;;;;;2.00;0.00;;;;;12.99;100.00;99932.91;5134755;27;45561;-75
2022/11/04 05:13:25;;;;;;;;;0.00;0.00;;;;;12.98;100.00;99927.63;5111125;27;45418;-74
2022/11/04 05:15:50;;;;;;;;;1.00;0.00;;;;;12.97;100.00;99937.38;5132844;27;45366;-74
2022/11/04 05:18:16;;;;;;;;;3.67;0.00;;;;;12.94;100.00;99929.44;5112641;27;46730;-74
2022/11/04 05:20:41;;;;;;;;;0.00;0.00;;;;;12.95;100.00;99933.00;5128176;27;45171;-76
2022/11/04 05:23:07;;;;;;;;;0.00;0.00;;;;;12.91;100.00;99928.63;5110451;27;45500;-75
2022/11/04 05:25:32;;;;;;;;;3.00;0.00;;;;;12.90;100.00;99935.69;5105549;27;45531;-76
2022/11/04 05:27:59;;;;;;;;;0.00;0.00;;;;;12.86;100.00;99933.97;5126076;27;63784;-74
2022/11/04 05:30:25;;;;;;;;;1.00;0.00;;;;;12.92;100.00;99951.56;5121548;27;45282;-75
2022/11/04 05:32:50;;;;;;;;;1.00;0.00;;;;;12.92;100.00;99946.28;5113387;27;64475;-74
2022/11/04 05:35:15;;;;;;;;;0.00;0.00;;;;;12.91;100.00;99944.53;5117221;27;52996;-75
2022/11/04 05:37:40;;;;;;;;;0.00;0.00;;;;;12.89;100.00;99939.25;5131889;27;63029;-75
2022/11/04 05:40:06;;;;;;;;;1.00;0.00;;;;;12.90;100.00;99940.13;5109079;27;65183;-74
2022/11/04 05:42:32;;;;;;;;;0.00;0.00;;;;;12.93;100.00;99932.13;5125732;27;45304;-74
2022/11/04 05:44:57;;;;;;;;;2.00;0.00;;;;;12.94;100.00;99941.81;5109312;27;45435;-74
2022/11/04 05:47:23;;;;;;;;;0.00;0.00;;;;;12.92;100.00;99941.84;5128280;27;68210;-76
2022/11/04 05:49:48;;;;;;;;;3.00;0.00;;;;;12.94;100.00;99948.00;5104592;27;63307;-75
2022/11/04 05:52:13;;;;;;;;;0.00;0.00;;;;;12.95;100.00;99949.78;5125578;27;60825;-75
2022/11/04 05:54:38;;;;;;;;;0.00;0.00;;;;;12.93;100.00;99963.91;5120327;27;62290;-74
2022/11/04 05:57:04;;;;;;;;;1.00;0.00;;;;;12.92;100.00;99959.53;5121227;27;65206;-75
2022/11/04 05:59:29;;;;;;;;;1.00;0.00;;;;;12.89;100.00;99962.19;5119055;27;45369;-75
2022/11/04 06:01:54;;;;;;;;;0.00;0.00;;;;;12.90;100.00;99963.97;5119225;27;57031;-75
2022/11/04 06:04:20;;;;;;;;;3.00;0.00;;;;;12.88;100.00;99966.63;5137320;27;56785;-75
2022/11/04 06:06:45;;;;;;;;;1.00;0.00;;;;;12.88;100.00;99971.91;5134165;27;64056;-76
2022/11/04 06:09:11;;;;;;;;;0.00;0.00;;;;;12.87;100.00;99967.53;5134541;27;45402;-76
2022/11/04 06:11:37;;;;;;;;;4.33;0.00;;;;;12.91;100.00;99973.66;5114016;27;54807;-75
2022/11/04 06:14:02;;;;;;;;;0.00;0.00;;;;;12.92;100.00;99980.72;5110315;27;45382;-75
2022/11/04 06:16:27;;;;;;;;;2.00;0.00;;;;;12.95;100.00;99978.91;5114322;27;46707;-74
2022/11/04 06:18:53;;;;;;;;;2.00;0.00;;;;;12.97;100.00;99986.84;5126415;27;66231;-74
2022/11/04 06:21:29;;;;;;;;;1.00;0.00;;;;;13.02;100.00;99990.31;5129858;27;64250;-76
2022/11/04 06:23:56;;;;;;;;;2.67;0.00;;;;;13.01;100.00;99984.13;5114401;27;45388;-74
2022/11/04 06:26:22;;;;;;;;;1.33;0.00;;;;;13.05;100.00;100006.19;5107733;27;46789;-74
2022/11/04 06:28:47;;;;;;;;;0.00;0.00;;;;;13.05;100.00;99998.22;5120085;27;45453;-76
2022/11/04 06:31:13;;;;;;;;;0.00;0.00;;;;;13.06;100.00;100003.50;5103182;27;45392;-76
2022/11/04 06:33:39;;;;;;;;;0.00;0.00;;;;;13.04;100.00;99994.69;5127461;27;46171;-75
2022/11/04 06:36:07;;;;;;;;;0.00;0.00;;;;;13.05;100.00;99995.59;5130598;27;46274;-74
2022/11/04 06:38:33;;;;;;;;;0.00;0.00;;;;;13.06;100.00;100002.63;5131051;27;45288;-75
2022/11/04 06:40:59;;;;;;;;;1.00;0.00;;;;;13.02;100.00;99996.47;5129270;27;45164;-76
2022/11/04 06:43:24;;;;;;;;;0.67;0.00;;;;;13.03;100.00;99997.34;5109104;27;58135;-74
2022/11/04 06:45:53;;;;;;;;;2.00;0.00;;;;;13.03;100.00;99994.72;5127416;27;45734;-75
2022/11/04 06:48:19;;;;;;;;;2.00;0.00;;;;;13.05;100.00;100004.41;5124241;27;45409;-76
2022/11/04 06:50:44;;;;;;;;;1.33;0.00;;;;;13.07;100.00;100002.59;5106002;27;45328;-75
2022/11/04 06:53:09;;;;;;;;;0.00;0.00;;;;;13.06;100.00;100008.81;5119634;27;61344;-74
2022/11/04 06:55:35;;;;;;;;;0.00;0.00;;;;;13.09;100.00;100013.19;5123037;27;58667;-75
2022/11/04 06:58:00;;;;;;;;;1.00;0.00;;;;;13.07;100.00;100002.59;5121482;27;45304;-76
2022/11/04 07:00:25;;;;;;;;;0.00;0.00;;;;;13.07;100.00;100018.50;5137328;27;59842;-75
2022/11/04 07:02:51;;;;;;;;;0.00;0.00;;;;;13.09;100.00;100013.19;5140425;27;45324;-75
2022/11/04 07:05:16;;;;;;;;;1.33;0.00;;;;;13.10;100.00;100023.78;5135540;27;67453;-75
2022/11/04 07:07:41;;;;;;;;;0.00;0.00;;;;;13.09;100.00;100019.34;5137620;27;58938;-76
2022/11/04 07:10:07;;;;;;;;;1.33;0.00;;;;;13.11;100.00;100022.88;5132820;27;55962;-75
2022/11/04 07:12:33;;;;;;;;;3.67;1.00;;;;;13.09;100.00;100024.66;5137942;27;45468;-76
2022/11/04 07:14:58;;;;;;;;;0.00;0.00;;;;;13.10;100.00;100036.13;5110812;27;68663;-75
2022/11/04 07:17:23;;;;;;;;;2.00;0.00;;;;;13.11;100.00;100037.91;5131789;27;60538;-75
2022/11/04 07:19:49;;;;;;;;;0.00;0.00;;;;;13.09;100.00;100035.25;5115235;27;45306;-75
2022/11/04 07:22:14;;;;;;;;;0.00;0.00;;;;;13.12;100.00;100044.97;5128282;27;51418;-77
2022/11/04 07:24:39;;;;;;;;;1.00;0.00;;;;;13.13;100.00;100051.13;5130007;27;63239;-76
2022/11/04 07:27:06;;;;;;;;;1.00;0.00;;;;;13.12;100.00;100042.31;5106477;27;45389;-76
2022/11/04 07:29:32;;;;;;;;;3.67;0.00;;;;;13.15;100.00;100059.94;5107197;27;45478;-76
2022/11/04 07:31:57;;;;;;;;;0.00;0.00;;;;;13.15;100.00;100062.59;5123019;27;45336;-76
2022/11/04 07:34:22;;;;;;;;;3.00;0.00;;;;;13.17;100.00;100067.00;5133011;27;66139;-76
2022/11/04 07:36:48;;;;;;;;;2.67;0.00;;;;;13.17;100.00;100074.94;5135579;27;45460;-75
2022/11/04 07:39:13;;;;;;;;;0.00;0.00;;;;;13.16;100.00;100083.78;5115695;27;45419;-75
2022/11/04 07:41:39;;;;;;;;;0.00;0.00;;;;;13.18;100.00;100081.13;5112888;27;45613;-76
2022/11/04 07:44:04;;;;;;;;;0.00;0.00;;;;;13.17;100.00;100079.38;5131578;27;64463;-76
2022/11/04 07:46:30;;;;;;;;;1.00;0.00;;;;;13.20;100.00;100077.53;5108472;27;45340;-75
2022/11/04 07:48:58;;;;;;;;;0.00;0.00;;;;;13.20;100.00;100100.53;5130037;27;45329;-76
2022/11/04 07:51:25;;;;;;;;;0.33;0.00;;;;;13.20;100.00;100103.16;5123720;27;59480;-75
2022/11/04 07:53:51;;;;;;;;;0.00;0.00;;;;;13.16;100.00;100107.66;5107243;27;46075;-75
2022/11/04 07:56:17;;;;;;;;;0.00;0.00;;;;;13.18;100.00;100111.16;5103572;27;45355;-76
2022/11/04 07:58:43;;;;;;;;;0.33;0.00;;;;;13.17;100.00;100109.41;5121643;27;45466;-75
2022/11/04 08:01:11;;;;;;;;;0.00;0.00;;;;;13.19;100.00;100125.28;5129381;27;46272;-75
2022/11/04 08:03:37;;;;;;;;;2.00;0.67;;;;;13.22;100.00;100127.94;5118939;27;46038;-75
2022/11/04 08:06:04;;;;;;;;;0.00;0.00;;;;;13.22;100.00;100128.81;5118591;27;62259;-75
2022/11/04 08:08:30;;;;;;;;;0.00;0.00;;;;;13.23;100.00;100135.88;5115700;27;45362;-75
2022/11/04 08:11:01;;;;;;;;;0.00;0.00;;;;;13.22;100.00;100138.53;5117219;27;45691;-75
2022/11/04 08:13:28;;;;;;;;;3.00;0.00;;;;;13.24;100.00;100145.56;5130484;27;47373;-75
2022/11/04 08:15:54;;;;;;;;;1.67;0.00;;;;;13.22;100.00;100138.53;5115582;27;45601;-75
2022/11/04 08:18:19;;;;;;;;;3.00;0.00;;;;;13.23;100.00;100145.59;5137593;27;45518;-75
2022/11/04 08:20:49;;;;;;;;;0.00;0.00;;;;;13.24;100.00;100153.53;5111288;27;45545;-75
2022/11/04 08:23:15;;;;;;;;;1.33;0.00;;;;;13.26;100.00;100153.50;5110251;27;47550;-76
2022/11/04 08:25:40;;;;;;;;;0.00;0.00;;;;;13.27;100.00;100152.63;5125945;27;45482;-76
2022/11/04 08:28:05;;;;;;;;;2.33;0.00;;;;;13.32;100.00;100153.47;5126590;27;45793;-76
2022/11/04 08:30:31;;;;;;;;;0.00;0.00;;;;;13.34;100.00;100157.84;5122104;27;55967;-76
2022/11/04 08:32:57;;;;;;;;;2.67;0.00;;;;;13.34;100.00;100157.84;5124579;27;45844;-75
2022/11/04 08:35:22;;;;;;;;;0.67;0.67;;;;;13.42;100.00;100165.69;5137279;27;45264;-75
2022/11/04 08:37:47;;;;;;;;;0.00;0.00;;;;;13.45;100.00;100164.78;5132222;27;59944;-75
2022/11/04 08:40:13;;;;;;;;;0.00;0.00;;;;;13.46;100.00;100172.72;5133526;27;45447;-76
2022/11/04 08:42:38;;;;;;;;;2.67;0.33;;;;;13.47;100.00;100179.78;5129106;27;66057;-76
2022/11/04 08:45:04;;;;;;;;;4.00;1.00;;;;;13.46;100.00;100180.69;5128061;27;63656;-75
2022/11/04 08:47:29;;;;;;;;;2.00;0.00;;;;;13.53;100.00;100190.34;5128114;27;45409;-75
2022/11/04 08:49:55;;;;;;;;;1.33;0.33;;;;;13.59;100.00;100192.06;5123931;27;60207;-75
2022/11/04 08:52:20;;;;;;;;;0.00;0.00;;;;;13.67;100.00;100206.09;5125539;27;45757;-75
2022/11/04 08:54:45;;;;;;;;;0.00;0.00;;;;;13.71;100.00;100214.91;5121018;27;58667;-76
2022/11/04 08:57:10;;;;;;;;;1.00;0.00;;;;;13.71;100.00;100217.56;5121809;27;45303;-75
2022/11/04 08:59:36;;;;;;;;;0.00;0.00;;;;;13.76;100.00;100223.69;5100876;27;58130;-75
2022/11/04 09:02:01;;;;;;;;;0.67;0.00;;;;;13.79;100.00;100226.28;5134068;27;66728;-75
2022/11/04 09:04:27;;;;;;;;;1.00;0.00;;;;;13.80;100.00;100231.59;5138107;27;45296;-75
2022/11/04 09:06:55;;;;;;;;;1.67;0.00;;;;;13.85;100.00;100231.53;5133734;27;59419;-76
2022/11/04 09:09:21;;;;;;;;;0.00;0.00;;;;;13.86;100.00;100241.25;5132466;27;45410;-77
2022/11/04 09:11:47;;;;;;;;;3.33;0.00;;;;;13.87;100.00;100243.88;5243498;22;45971;-76
2022/11/04 09:14:13;;;;;;;;;2.00;1.00;;;;;13.87;100.00;100237.69;5094370;27;45500;-75
2022/11/04 09:16:39;;;;;;;;;0.00;0.00;;;;;13.94;100.00;100246.47;5115624;27;45429;-75
2022/11/04 09:19:04;;;;;;;;;0.00;0.00;;;;;14.00;100.00;100259.66;5096060;27;45510;-75
2022/11/04 09:21:30;;;;;;;;;3.00;0.00;;;;;14.02;100.00;100264.06;5109165;27;51217;-75
2022/11/04 09:23:55;;;;;;;;;2.00;0.00;;;;;14.03;100.00;100268.47;5094404;27;45334;-75
2022/11/04 09:26:22;;;;;;;;;2.00;0.00;;;;;14.06;100.00;100267.53;5106449;27;59973;-75
2022/11/04 09:28:47;;;;;;;;;3.00;0.00;;;;;14.03;100.00;100270.25;5101868;27;45200;-75
2022/11/04 09:31:15;;;;;;;;;0.00;0.00;;;;;14.01;100.00;100272.94;5088158;27;47116;-75
2022/11/04 09:33:41;;;;;;;;;0.00;0.00;;;;;13.99;100.00;100269.38;5089121;27;45497;-75
2022/11/04 09:36:08;;;;;;;;;3.33;0.67;;;;;14.01;100.00;100278.22;5093988;27;46814;-75
2022/11/04 09:38:33;;;;;;;;;0.67;0.67;;;;;14.00;100.00;100281.75;5099342;27;45400;-77
2022/11/04 09:40:59;;;;;;;;;0.00;0.00;;;;;13.98;100.00;100285.34;5108423;27;46013;-75
2022/11/04 09:43:55;;;;;;;;;1.00;0.00;;;;;13.93;100.00;100297.78;5108261;27;45359;-75
2022/11/04 09:46:22;;;;;;;;;1.33;0.33;;;;;13.82;100.00;100297.91;5109570;27;45475;-75
2022/11/04 09:48:50;;;;;;;;;0.67;0.67;;;;;13.75;100.00;100302.41;5098496;27;45512;-75
2022/11/04 09:51:21;;;;;;;;;2.00;0.00;;;;;13.70;100.00;100306.88;5101316;27;46800;-76
2022/11/04 09:53:55;;;;;;;;;0.00;0.00;;;;;13.74;100.00;100311.28;5096203;27;45523;-75
2022/11/04 09:56:31;;;;;;;;;1.67;0.00;;;;;13.72;100.00;100315.69;5081081;27;45300;-76
2022/11/04 09:58:56;;;;;;;;;0.00;0.00;;;;;13.72;100.00;100326.31;5098703;27;45272;-76
2022/11/04 10:01:34;;;;;;;;;2.33;0.00;;;;;13.76;100.00;100322.72;5117752;27;46638;-76
2022/11/04 10:04:03;;;;;;;;;0.00;0.00;;;;;13.79;100.00;100335.06;5114366;27;45360;-75
2022/11/04 10:06:41;;;;;;;;;2.33;0.00;;;;;13.78;100.00;100328.00;5115039;27;45245;-75
2022/11/04 10:09:23;;;;;;;;;0.67;0.67;;;;;13.75;100.00;100336.91;5099391;27;45234;-75
2022/11/04 10:11:58;;;;;;;;;1.00;0.00;;;;;13.75;100.00;100341.34;5110243;27;47799;-76
2022/11/04 10:15:08;;;;;;;;;0.33;0.00;;;;;13.71;100.00;100348.44;5090685;27;45433;-75
2022/11/04 10:17:39;;;;;;;;;2.00;0.00;;;;;13.68;100.00;100368.78;5110346;27;45414;-77
2022/11/04 10:20:32;;;;;;;;;1.00;1.00;;;;;13.62;100.00;100373.25;5108182;27;45509;-75
2022/11/04 10:23:02;;;;;;;;;1.00;0.00;;;;;13.62;100.00;100381.22;5091614;27;46725;-75
2022/11/04 10:25:33;;;;;;;;;0.00;0.00;;;;;13.68;100.00;100387.38;5092577;27;45315;-75
2022/11/04 10:27:59;;;;;;;;;2.67;1.00;;;;;13.73;100.00;100383.78;5088883;27;45338;-75
2022/11/04 10:30:24;;;;;;;;;1.00;0.00;;;;;13.79;100.00;100393.44;5094514;27;58255;-75
2022/11/04 10:33:27;;;;;;;;;0.00;0.00;;;;;13.92;100.00;100392.47;5106634;27;45834;-75
2022/11/04 10:35:57;;;;;;;;;2.67;0.00;;;;;14.02;100.00;100396.78;5098277;27;45383;-75
2022/11/04 10:38:34;;;;;;;;;0.00;0.00;;;;;14.10;100.00;100409.97;5113001;27;45287;-75
2022/11/04 10:41:00;;;;;;;;;0.33;0.00;;;;;14.12;100.00;100416.16;5093944;27;45667;-75
2022/11/04 10:43:36;;;;;;;;;0.00;0.00;;;;;14.23;100.00;100419.59;5111021;27;46783;-75
2022/11/04 10:46:27;;;;;;;;;0.00;0.00;;;;;14.40;100.00;100414.97;5089770;27;45325;-75
2022/11/04 10:49:31;;;;;;;;;1.00;1.00;;;;;14.63;100.00;100422.69;5110409;27;45263;-75
2022/11/04 10:51:56;;;;;;;;;0.00;0.00;;;;;14.78;100.00;100437.56;5107144;27;45443;-75
2022/11/04 10:54:24;;;;;;;;;1.00;1.00;;;;;14.85;100.00;100441.91;5102032;27;56956;-75
2022/11/04 10:56:52;;;;;;;;;0.00;0.00;;;;;14.94;100.00;100444.44;5097185;27;45445;-76
2022/11/04 10:59:30;;;;;;;;;1.67;0.33;;;;;15.12;100.00;100447.75;5065395;27;45402;-75
2022/11/04 11:01:58;;;;;;;;;2.00;0.33;;;;;15.26;100.00;100443.13;5108757;27;45555;-75
2022/11/04 11:04:34;;;;;;;;;0.33;0.00;;;;;15.35;100.00;100445.66;5100575;27;46720;-75
2022/11/04 11:07:03;;;;;;;;;1.00;0.00;;;;;15.38;100.00;100456.22;5096565;27;45450;-75
2022/11/04 11:09:42;;;;;;;;;0.00;0.00;;;;;15.35;100.00;100450.09;5098253;27;45512;-75
2022/11/04 11:12:13;;;;;;;;;0.00;0.00;;;;;15.29;100.00;100463.50;5099906;27;45339;-75
2022/11/04 11:14:40;;;;;;;;;0.00;0.00;;;;;15.18;100.00;100461.88;5110767;27;46488;-75
2022/11/04 11:17:14;;;;;;;;;0.00;0.00;;;;;15.09;100.00;100461.09;5109703;27;45451;-76
2022/11/04 11:20:07;;;;;;;;;7.33;6.33;;;;;15.01;100.00;100473.59;5113681;27;45441;-76
2022/11/04 11:22:42;;;;;;;;;5.00;3.67;;;;;14.92;100.00;100471.97;5108609;27;45416;-75
2022/11/04 11:25:22;;;;;;;;;4.00;2.00;;;;;14.82;100.00;100479.16;5105689;27;46894;-76
2022/11/04 11:27:50;;;;;;;;;3.00;0.00;;;;;14.79;100.00;100483.63;5096643;27;45472;-75
2022/11/04 11:30:23;;;;;;;;;0.00;0.00;;;;;14.79;100.00;100484.50;5092893;27;45654;-75
2022/11/04 11:32:55;;;;;;;;;1.00;1.00;;;;;14.81;100.00;100493.34;5106231;27;45449;-76
2022/11/04 11:35:22;;;;;;;;;0.33;0.00;;;;;14.82;100.00;100494.22;5106184;27;45871;-75
2022/11/04 11:37:48;;;;;;;;;2.00;2.00;;;;;14.86;100.00;100499.50;5112739;27;45250;-75
2022/11/04 11:40:31;;;;;;;;;1.00;1.00;;;;;14.94;100.00;100496.72;5098873;27;62689;-76
2022/11/04 11:42:59;;;;;;;;;2.33;1.00;;;;;15.03;100.00;100509.94;5089683;27;45390;-75
2022/11/04 11:45:26;;;;;;;;;1.67;0.00;;;;;15.10;100.00;100513.38;5101166;27;46539;-76
2022/11/04 11:47:55;;;;;;;;;1.00;1.00;;;;;15.12;100.00;100516.88;5086679;27;45497;-75
2022/11/04 11:50:29;;;;;;;;;2.00;0.67;;;;;15.16;100.00;100518.63;5092016;27;45460;-75
2022/11/04 11:53:16;;;;;;;;;2.00;0.00;;;;;15.20;100.00;100523.88;5089051;27;45473;-75
2022/11/04 11:56:14;;;;;;;;;3.00;1.33;;;;;15.25;100.00;100528.28;5099960;27;45660;-75
2022/11/04 11:58:48;;;;;;;;;4.33;2.33;;;;;15.30;100.00;100535.28;5095904;27;45346;-75
2022/11/04 12:01:45;;;;;;;;;1.00;1.00;;;;;15.40;100.00;100541.38;5087930;27;45462;-77